sensor_id;sensor_type;location;lat;lon;timestamp;P1;durP1;ratioP1;P2;durP2;ratioP2
42802;SDS011;28447;48.682;9.022;2024-01-25T05:01:17;16.27;;;4.47;;
42802;SDS011;28447;48.682;9.022;2024-01-25T05:03:43;10.73;;;4.37;;
42802;SDS011;28447;48.682;9.022;2024-01-25T05:06:09;35.47;;;4.83;;
42802;SDS011;28447;48.682;9.022;2024-01-25T05:08:35;17.27;;;4.53;;
42802;SDS011;28447;48.682;9.022;2024-01-25T05:11:01;12.00;;;4.03;;
42802;SDS011;28447;48.682;9.022;2024-01-25T05:13:28;17.83;;;5.50;;
42802;SDS011;28447;48.682;9.022;2024-01-25T05:15:54;23.93;;;5.10;;
42802;SDS011;28447;48.682;9.022;2024-01-25T05:18:20;21.40;;;4.67;;
42802;SDS011;28447;48.682;9.022;2024-01-25T05:20:46;17.13;;;4.70;;
42802;SDS011;28447;48.682;9.022;2024-01-25T05:23:12;22.13;;;5.07;;
42802;SDS011;28447;48.682;9.022;2024-01-25T05:25:38;15.50;;;4.63;;
42802;SDS011;28447;48.682;9.022;2024-01-25T05:28:04;19.23;;;4.60;;
42802;SDS011;28447;48.682;9.022;2024-01-25T05:30:30;16.30;;;4.20;;
42802;SDS011;28447;48.682;9.022;2024-01-25T05:32:56;22.67;;;4.40;;
42802;SDS011;28447;48.682;9.022;2024-01-25T05:35:22;17.90;;;4.37;;
42802;SDS011;28447;48.682;9.022;2024-01-25T05:37:49;10.50;;;4.23;;
42802;SDS011;28447;48.682;9.022;2024-01-25T05:40:15;14.50;;;4.30;;
42802;SDS011;28447;48.682;9.022;2024-01-25T05:42:41;20.90;;;4.80;;
42802;SDS011;28447;48.682;9.022;2024-01-25T05:45:07;18.57;;;4.47;;
42802;SDS011;28447;48.682;9.022;2024-01-25T05:47:33;18.50;;;5.00;;
42802;SDS011;28447;48.682;9.022;2024-01-25T05:50:00;27.30;;;4.67;;
42802;SDS011;28447;48.682;9.022;2024-01-25T05:52:26;20.53;;;4.40;;
42802;SDS011;28447;48.682;9.022;2024-01-25T05:54:52;14.53;;;4.67;;
42802;SDS011;28447;48.682;9.022;2024-01-25T05:57:18;19.53;;;5.20;;
42802;SDS011;28447;48.682;9.022;2024-01-25T05:59:45;21.57;;;5.50;;
42802;SDS011;28447;48.682;9.022;2024-01-25T06:02:11;16.33;;;5.60;;
42802;SDS011;28447;48.682;9.022;2024-01-25T06:04:37;22.53;;;4.77;;
42802;SDS011;28447;48.682;9.022;2024-01-25T06:07:03;21.03;;;5.10;;
42802;SDS011;28447;48.682;9.022;2024-01-25T06:09:29;17.43;;;4.60;;
42802;SDS011;28447;48.682;9.022;2024-01-25T06:11:56;20.37;;;4.77;;
42802;SDS011;28447;48.682;9.022;2024-01-25T06:14:22;22.60;;;5.30;;
42802;SDS011;28447;48.682;9.022;2024-01-25T06:16:48;23.90;;;5.10;;
42802;SDS011;28447;48.682;9.022;2024-01-25T06:19:14;17.53;;;5.57;;
42802;SDS011;28447;48.682;9.022;2024-01-25T06:21:40;18.93;;;5.00;;
42802;SDS011;28447;48.682;9.022;2024-01-25T06:24:06;19.17;;;5.70;;
42802;SDS011;28447;48.682;9.022;2024-01-25T06:26:33;22.53;;;4.57;;
42802;SDS011;28447;48.682;9.022;2024-01-25T06:28:59;13.33;;;4.50;;
42802;SDS011;28447;48.682;9.022;2024-01-25T06:31:25;15.20;;;4.13;;
42802;SDS011;28447;48.682;9.022;2024-01-25T06:33:51;18.83;;;5.97;;
42802;SDS011;28447;48.682;9.022;2024-01-25T06:36:18;18.43;;;5.13;;
42802;SDS011;28447;48.682;9.022;2024-01-25T06:38:44;23.60;;;4.90;;
42802;SDS011;28447;48.682;9.022;2024-01-25T06:41:10;22.23;;;5.37;;
42802;SDS011;28447;48.682;9.022;2024-01-25T06:43:36;25.57;;;5.10;;
42802;SDS011;28447;48.682;9.022;2024-01-25T06:46:02;13.50;;;4.50;;
42802;SDS011;28447;48.682;9.022;2024-01-25T06:48:28;17.50;;;4.57;;
42802;SDS011;28447;48.682;9.022;2024-01-25T06:50:54;15.50;;;4.90;;
42802;SDS011;28447;48.682;9.022;2024-01-25T06:53:20;19.97;;;5.17;;
42802;SDS011;28447;48.682;9.022;2024-01-25T06:55:47;17.27;;;5.33;;
42802;SDS011;28447;48.682;9.022;2024-01-25T06:58:13;20.97;;;5.03;;
42802;SDS011;28447;48.682;9.022;2024-01-25T07:00:39;16.07;;;3.97;;
42802;SDS011;28447;48.682;9.022;2024-01-25T07:03:07;21.20;;;5.10;;
42802;SDS011;28447;48.682;9.022;2024-01-25T07:05:33;19.73;;;4.57;;
42802;SDS011;28447;48.682;9.022;2024-01-25T07:08:00;10.90;;;4.30;;
42802;SDS011;28447;48.682;9.022;2024-01-25T07:10:26;22.10;;;5.40;;
42802;SDS011;28447;48.682;9.022;2024-01-25T07:12:52;19.27;;;4.70;;
42802;SDS011;28447;48.682;9.022;2024-01-25T07:15:19;22.23;;;5.20;;
42802;SDS011;28447;48.682;9.022;2024-01-25T07:17:45;16.10;;;4.40;;
42802;SDS011;28447;48.682;9.022;2024-01-25T07:20:11;15.53;;;4.87;;
42802;SDS011;28447;48.682;9.022;2024-01-25T07:22:37;23.00;;;4.50;;
42802;SDS011;28447;48.682;9.022;2024-01-25T07:25:03;16.10;;;4.27;;
42802;SDS011;28447;48.682;9.022;2024-01-25T07:27:29;24.47;;;4.90;;
42802;SDS011;28447;48.682;9.022;2024-01-25T07:29:55;12.27;;;4.70;;
42802;SDS011;28447;48.682;9.022;2024-01-25T07:32:21;11.50;;;4.80;;
42802;SDS011;28447;48.682;9.022;2024-01-25T07:34:49;22.60;;;5.70;;
42802;SDS011;28447;48.682;9.022;2024-01-25T07:37:15;23.03;;;4.40;;
42802;SDS011;28447;48.682;9.022;2024-01-25T07:39:50;21.27;;;5.30;;
42802;SDS011;28447;48.682;9.022;2024-01-25T07:42:16;19.83;;;5.20;;
42802;SDS011;28447;48.682;9.022;2024-01-25T07:44:43;16.70;;;4.83;;
42802;SDS011;28447;48.682;9.022;2024-01-25T07:47:09;19.37;;;5.87;;
42802;SDS011;28447;48.682;9.022;2024-01-25T07:49:35;16.60;;;6.07;;
42802;SDS011;28447;48.682;9.022;2024-01-25T07:52:01;17.90;;;6.40;;
42802;SDS011;28447;48.682;9.022;2024-01-25T07:54:27;17.60;;;7.43;;
42802;SDS011;28447;48.682;9.022;2024-01-25T07:56:53;16.97;;;6.00;;
42802;SDS011;28447;48.682;9.022;2024-01-25T07:59:19;20.77;;;7.10;;
42802;SDS011;28447;48.682;9.022;2024-01-25T08:01:45;11.50;;;4.83;;
42802;SDS011;28447;48.682;9.022;2024-01-25T08:04:11;23.40;;;6.43;;
42802;SDS011;28447;48.682;9.022;2024-01-25T08:06:37;20.77;;;5.70;;
42802;SDS011;28447;48.682;9.022;2024-01-25T08:09:03;12.53;;;4.10;;
42802;SDS011;28447;48.682;9.022;2024-01-25T08:11:29;23.53;;;5.17;;
42802;SDS011;28447;48.682;9.022;2024-01-25T08:13:55;12.40;;;3.93;;
42802;SDS011;28447;48.682;9.022;2024-01-25T08:16:21;12.40;;;4.43;;
42802;SDS011;28447;48.682;9.022;2024-01-25T08:18:47;13.60;;;4.70;;
42802;SDS011;28447;48.682;9.022;2024-01-25T08:21:13;11.97;;;4.30;;
42802;SDS011;28447;48.682;9.022;2024-01-25T08:23:39;16.37;;;4.50;;
42802;SDS011;28447;48.682;9.022;2024-01-25T08:26:05;12.53;;;3.97;;
42802;SDS011;28447;48.682;9.022;2024-01-25T08:28:36;13.70;;;4.40;;
42802;SDS011;28447;48.682;9.022;2024-01-25T08:31:02;18.80;;;4.17;;
42802;SDS011;28447;48.682;9.022;2024-01-25T08:33:30;16.47;;;4.40;;
42802;SDS011;28447;48.682;9.022;2024-01-25T08:35:56;12.37;;;4.03;;
42802;SDS011;28447;48.682;9.022;2024-01-25T08:38:22;10.60;;;4.30;;
42802;SDS011;28447;48.682;9.022;2024-01-25T08:40:48;21.50;;;4.27;;
42802;SDS011;28447;48.682;9.022;2024-01-25T08:43:14;14.80;;;4.10;;
42802;SDS011;28447;48.682;9.022;2024-01-25T08:45:40;12.83;;;4.17;;
42802;SDS011;28447;48.682;9.022;2024-01-25T08:48:06;19.20;;;4.67;;
42802;SDS011;28447;48.682;9.022;2024-01-25T08:50:34;13.93;;;3.90;;
42802;SDS011;28447;48.682;9.022;2024-01-25T08:53:00;16.73;;;4.87;;
42802;SDS011;28447;48.682;9.022;2024-01-25T08:55:26;17.90;;;4.67;;
42802;SDS011;28447;48.682;9.022;2024-01-25T08:57:52;10.30;;;4.03;;
42802;SDS011;28447;48.682;9.022;2024-01-25T09:00:18;20.53;;;4.40;;
42802;SDS011;28447;48.682;9.022;2024-01-25T09:02:44;16.33;;;6.13;;
42802;SDS011;28447;48.682;9.022;2024-01-25T09:05:10;13.80;;;4.67;;
42802;SDS011;28447;48.682;9.022;2024-01-25T09:07:37;19.33;;;5.40;;
42802;SDS011;28447;48.682;9.022;2024-01-25T09:10:03;13.43;;;4.90;;
42802;SDS011;28447;48.682;9.022;2024-01-25T09:12:29;14.90;;;4.17;;
42802;SDS011;28447;48.682;9.022;2024-01-25T09:14:55;11.80;;;4.40;;
42802;SDS011;28447;48.682;9.022;2024-01-25T09:17:21;14.00;;;4.03;;
42802;SDS011;28447;48.682;9.022;2024-01-25T09:19:48;12.43;;;4.83;;
42802;SDS011;28447;48.682;9.022;2024-01-25T09:22:15;11.70;;;3.93;;
42802;SDS011;28447;48.682;9.022;2024-01-25T09:24:42;21.10;;;4.97;;
42802;SDS011;28447;48.682;9.022;2024-01-25T09:27:08;18.60;;;4.33;;
42802;SDS011;28447;48.682;9.022;2024-01-25T09:29:34;24.47;;;4.63;;
42802;SDS011;28447;48.682;9.022;2024-01-25T09:32:00;17.67;;;4.97;;
42802;SDS011;28447;48.682;9.022;2024-01-25T09:34:26;26.10;;;5.30;;
42802;SDS011;28447;48.682;9.022;2024-01-25T09:36:52;12.70;;;4.10;;
42802;SDS011;28447;48.682;9.022;2024-01-25T09:39:18;15.57;;;4.10;;
42802;SDS011;28447;48.682;9.022;2024-01-25T09:41:44;16.93;;;4.67;;
42802;SDS011;28447;48.682;9.022;2024-01-25T09:44:11;12.83;;;4.33;;
42802;SDS011;28447;48.682;9.022;2024-01-25T09:46:37;17.87;;;3.80;;
42802;SDS011;28447;48.682;9.022;2024-01-25T09:49:03;16.93;;;4.17;;
42802;SDS011;28447;48.682;9.022;2024-01-25T09:51:34;20.00;;;4.40;;
42802;SDS011;28447;48.682;9.022;2024-01-25T09:54:02;10.60;;;3.60;;
42802;SDS011;28447;48.682;9.022;2024-01-25T09:56:29;16.53;;;3.80;;
42802;SDS011;28447;48.682;9.022;2024-01-25T09:58:57;18.00;;;3.60;;
42802;SDS011;28447;48.682;9.022;2024-01-25T10:01:23;14.60;;;4.33;;
42802;SDS011;28447;48.682;9.022;2024-01-25T10:03:49;9.43;;;3.30;;
42802;SDS011;28447;48.682;9.022;2024-01-25T10:06:15;11.93;;;3.73;;
42802;SDS011;28447;48.682;9.022;2024-01-25T10:08:42;12.67;;;4.30;;
42802;SDS011;28447;48.682;9.022;2024-01-25T10:11:08;20.13;;;4.23;;
42802;SDS011;28447;48.682;9.022;2024-01-25T10:16:12;8.90;;;3.73;;
42802;SDS011;28447;48.682;9.022;2024-01-25T10:18:40;10.37;;;4.10;;
42802;SDS011;28447;48.682;9.022;2024-01-25T10:21:08;12.00;;;3.50;;
42802;SDS011;28447;48.682;9.022;2024-01-25T10:23:34;10.27;;;4.03;;
42802;SDS011;28447;48.682;9.022;2024-01-25T10:26:00;9.73;;;3.80;;
42802;SDS011;28447;48.682;9.022;2024-01-25T10:28:27;10.80;;;3.87;;
42802;SDS011;28447;48.682;9.022;2024-01-25T10:30:55;11.60;;;3.77;;
42802;SDS011;28447;48.682;9.022;2024-01-25T10:33:22;14.93;;;3.47;;
42802;SDS011;28447;48.682;9.022;2024-01-25T10:35:49;14.80;;;3.70;;
42802;SDS011;28447;48.682;9.022;2024-01-25T10:38:19;15.90;;;3.50;;
42802;SDS011;28447;48.682;9.022;2024-01-25T10:40:46;10.53;;;3.50;;
42802;SDS011;28447;48.682;9.022;2024-01-25T10:43:12;10.40;;;3.57;;
42802;SDS011;28447;48.682;9.022;2024-01-25T10:45:38;9.40;;;3.47;;
42802;SDS011;28447;48.682;9.022;2024-01-25T10:48:04;15.83;;;3.43;;
42802;SDS011;28447;48.682;9.022;2024-01-25T10:50:30;10.50;;;3.80;;
42802;SDS011;28447;48.682;9.022;2024-01-25T10:52:56;14.33;;;3.50;;
42802;SDS011;28447;48.682;9.022;2024-01-25T10:55:23;10.27;;;3.40;;
42802;SDS011;28447;48.682;9.022;2024-01-25T10:57:50;16.50;;;3.97;;
42802;SDS011;28447;48.682;9.022;2024-01-25T11:00:18;13.50;;;3.50;;
42802;SDS011;28447;48.682;9.022;2024-01-25T11:02:44;23.47;;;4.13;;
42802;SDS011;28447;48.682;9.022;2024-01-25T11:05:14;11.90;;;3.70;;
42802;SDS011;28447;48.682;9.022;2024-01-25T11:07:48;8.50;;;3.10;;
42802;SDS011;28447;48.682;9.022;2024-01-25T11:10:18;18.20;;;4.60;;
42802;SDS011;28447;48.682;9.022;2024-01-25T11:12:57;13.13;;;3.50;;
42802;SDS011;28447;48.682;9.022;2024-01-25T12:14:25;12.50;;;3.20;;
42802;SDS011;28447;48.682;9.022;2024-01-25T12:16:51;6.70;;;3.23;;
42802;SDS011;28447;48.682;9.022;2024-01-25T12:19:17;12.53;;;3.60;;
42802;SDS011;28447;48.682;9.022;2024-01-25T12:21:43;9.13;;;3.80;;
42802;SDS011;28447;48.682;9.022;2024-01-25T12:24:10;10.60;;;2.90;;
42802;SDS011;28447;48.682;9.022;2024-01-25T12:26:36;9.03;;;3.23;;
42802;SDS011;28447;48.682;9.022;2024-01-25T12:29:02;17.03;;;3.77;;
42802;SDS011;28447;48.682;9.022;2024-01-25T12:31:29;9.63;;;3.70;;
42802;SDS011;28447;48.682;9.022;2024-01-25T12:33:55;9.07;;;3.07;;
42802;SDS011;28447;48.682;9.022;2024-01-25T12:36:22;10.60;;;3.53;;
42802;SDS011;28447;48.682;9.022;2024-01-25T12:38:48;11.13;;;3.00;;
42802;SDS011;28447;48.682;9.022;2024-01-25T12:41:14;11.73;;;3.43;;
42802;SDS011;28447;48.682;9.022;2024-01-25T12:43:41;10.33;;;3.57;;
42802;SDS011;28447;48.682;9.022;2024-01-25T12:46:07;7.80;;;3.57;;
42802;SDS011;28447;48.682;9.022;2024-01-25T12:48:33;9.43;;;3.13;;
42802;SDS011;28447;48.682;9.022;2024-01-25T12:50:59;9.03;;;3.07;;
42802;SDS011;28447;48.682;9.022;2024-01-25T12:53:25;13.10;;;2.40;;
42802;SDS011;28447;48.682;9.022;2024-01-25T12:55:51;9.70;;;2.90;;
42802;SDS011;28447;48.682;9.022;2024-01-25T12:58:17;10.20;;;3.43;;
42802;SDS011;28447;48.682;9.022;2024-01-25T13:00:43;9.60;;;2.80;;
42802;SDS011;28447;48.682;9.022;2024-01-25T13:03:10;13.90;;;4.63;;
42802;SDS011;28447;48.682;9.022;2024-01-25T13:05:36;9.03;;;3.23;;
42802;SDS011;28447;48.682;9.022;2024-01-25T13:08:04;8.97;;;3.27;;
42802;SDS011;28447;48.682;9.022;2024-01-25T13:10:30;10.53;;;2.87;;
42802;SDS011;28447;48.682;9.022;2024-01-25T13:12:59;8.40;;;3.30;;
42802;SDS011;28447;48.682;9.022;2024-01-25T13:15:25;8.63;;;3.83;;
42802;SDS011;28447;48.682;9.022;2024-01-25T13:17:52;9.80;;;3.00;;
42802;SDS011;28447;48.682;9.022;2024-01-25T13:20:18;10.30;;;2.70;;
42802;SDS011;28447;48.682;9.022;2024-01-25T13:22:44;9.50;;;2.77;;
42802;SDS011;28447;48.682;9.022;2024-01-25T13:25:10;7.17;;;3.10;;
42802;SDS011;28447;48.682;9.022;2024-01-25T13:27:37;11.10;;;3.20;;
42802;SDS011;28447;48.682;9.022;2024-01-25T13:30:03;7.27;;;3.10;;
42802;SDS011;28447;48.682;9.022;2024-01-25T13:32:30;7.87;;;2.90;;
42802;SDS011;28447;48.682;9.022;2024-01-25T13:34:56;11.60;;;4.03;;
42802;SDS011;28447;48.682;9.022;2024-01-25T13:37:22;6.53;;;3.23;;
42802;SDS011;28447;48.682;9.022;2024-01-25T13:39:48;10.03;;;3.20;;
42802;SDS011;28447;48.682;9.022;2024-01-25T13:42:14;6.87;;;3.10;;
42802;SDS011;28447;48.682;9.022;2024-01-25T13:44:40;7.17;;;2.80;;
42802;SDS011;28447;48.682;9.022;2024-01-25T13:47:06;7.20;;;3.07;;
42802;SDS011;28447;48.682;9.022;2024-01-25T13:49:32;6.83;;;2.90;;
42802;SDS011;28447;48.682;9.022;2024-01-25T13:52:00;6.30;;;3.40;;
42802;SDS011;28447;48.682;9.022;2024-01-25T13:54:29;10.83;;;3.47;;
42802;SDS011;28447;48.682;9.022;2024-01-25T13:56:55;6.97;;;3.20;;
42802;SDS011;28447;48.682;9.022;2024-01-25T13:59:21;10.47;;;4.20;;
42802;SDS011;28447;48.682;9.022;2024-01-25T14:01:49;7.10;;;3.33;;
42802;SDS011;28447;48.682;9.022;2024-01-25T14:04:16;11.57;;;3.77;;
42802;SDS011;28447;48.682;9.022;2024-01-25T14:06:42;5.27;;;2.97;;
42802;SDS011;28447;48.682;9.022;2024-01-25T14:09:08;6.33;;;3.20;;
42802;SDS011;28447;48.682;9.022;2024-01-25T14:11:34;4.67;;;2.70;;
42802;SDS011;28447;48.682;9.022;2024-01-25T14:14:00;9.27;;;2.87;;
42802;SDS011;28447;48.682;9.022;2024-01-25T14:16:26;7.60;;;2.70;;
42802;SDS011;28447;48.682;9.022;2024-01-25T14:18:52;8.60;;;3.33;;
42802;SDS011;28447;48.682;9.022;2024-01-25T14:21:18;7.23;;;2.80;;
42802;SDS011;28447;48.682;9.022;2024-01-25T14:23:46;11.50;;;2.67;;
42802;SDS011;28447;48.682;9.022;2024-01-25T14:26:12;11.33;;;2.70;;
42802;SDS011;28447;48.682;9.022;2024-01-25T14:28:38;6.80;;;2.70;;
42802;SDS011;28447;48.682;9.022;2024-01-25T14:31:04;5.87;;;2.33;;
42802;SDS011;28447;48.682;9.022;2024-01-25T14:33:30;11.50;;;2.87;;
42802;SDS011;28447;48.682;9.022;2024-01-25T14:35:56;8.53;;;2.70;;
42802;SDS011;28447;48.682;9.022;2024-01-25T14:38:22;18.17;;;3.10;;
42802;SDS011;28447;48.682;9.022;2024-01-25T14:40:48;12.30;;;2.93;;
42802;SDS011;28447;48.682;9.022;2024-01-25T14:43:14;9.90;;;2.70;;
42802;SDS011;28447;48.682;9.022;2024-01-25T14:45:40;9.03;;;2.83;;
42802;SDS011;28447;48.682;9.022;2024-01-25T14:48:06;7.97;;;3.00;;
42802;SDS011;28447;48.682;9.022;2024-01-25T14:50:32;9.20;;;3.17;;
42802;SDS011;28447;48.682;9.022;2024-01-25T14:52:58;5.50;;;2.77;;
42802;SDS011;28447;48.682;9.022;2024-01-25T14:55:24;8.33;;;3.30;;
42802;SDS011;28447;48.682;9.022;2024-01-25T14:57:50;6.07;;;2.13;;
42802;SDS011;28447;48.682;9.022;2024-01-25T15:00:17;8.20;;;2.50;;
42802;SDS011;28447;48.682;9.022;2024-01-25T15:02:45;7.37;;;2.30;;
42802;SDS011;28447;48.682;9.022;2024-01-25T15:05:11;8.07;;;2.50;;
42802;SDS011;28447;48.682;9.022;2024-01-25T15:07:38;6.33;;;2.60;;
42802;SDS011;28447;48.682;9.022;2024-01-25T15:10:04;5.87;;;2.30;;
42802;SDS011;28447;48.682;9.022;2024-01-25T15:12:30;8.67;;;2.70;;
42802;SDS011;28447;48.682;9.022;2024-01-25T15:14:56;13.83;;;2.97;;
42802;SDS011;28447;48.682;9.022;2024-01-25T15:17:24;8.70;;;3.37;;
42802;SDS011;28447;48.682;9.022;2024-01-25T15:19:50;6.13;;;3.33;;
42802;SDS011;28447;48.682;9.022;2024-01-25T15:22:16;10.53;;;3.00;;
42802;SDS011;28447;48.682;9.022;2024-01-25T15:24:42;6.63;;;2.77;;
42802;SDS011;28447;48.682;9.022;2024-01-25T15:27:08;9.60;;;3.20;;
42802;SDS011;28447;48.682;9.022;2024-01-25T15:29:37;7.50;;;3.10;;
42802;SDS011;28447;48.682;9.022;2024-01-25T15:32:03;10.33;;;2.93;;
42802;SDS011;28447;48.682;9.022;2024-01-25T15:34:29;10.93;;;4.03;;
42802;SDS011;28447;48.682;9.022;2024-01-25T15:36:55;7.03;;;3.43;;
42802;SDS011;28447;48.682;9.022;2024-01-25T15:39:21;4.93;;;1.97;;
42802;SDS011;28447;48.682;9.022;2024-01-25T15:41:49;9.73;;;3.23;;
42802;SDS011;28447;48.682;9.022;2024-01-25T15:44:15;9.80;;;2.60;;
42802;SDS011;28447;48.682;9.022;2024-01-25T15:46:42;7.97;;;2.30;;
42802;SDS011;28447;48.682;9.022;2024-01-25T15:49:08;4.80;;;2.00;;
42802;SDS011;28447;48.682;9.022;2024-01-25T15:51:34;5.97;;;2.47;;
42802;SDS011;28447;48.682;9.022;2024-01-25T15:54:00;4.00;;;2.20;;
42802;SDS011;28447;48.682;9.022;2024-01-25T15:56:26;10.10;;;2.97;;
42802;SDS011;28447;48.682;9.022;2024-01-25T15:58:52;11.20;;;3.17;;
42802;SDS011;28447;48.682;9.022;2024-01-25T16:01:18;8.67;;;4.80;;
42802;SDS011;28447;48.682;9.022;2024-01-25T16:03:44;20.30;;;10.87;;
42802;SDS011;28447;48.682;9.022;2024-01-25T16:06:10;13.83;;;6.47;;
42802;SDS011;28447;48.682;9.022;2024-01-25T16:08:36;31.07;;;19.70;;
42802;SDS011;28447;48.682;9.022;2024-01-25T16:11:02;13.50;;;7.57;;
42802;SDS011;28447;48.682;9.022;2024-01-25T16:13:28;13.70;;;7.90;;
42802;SDS011;28447;48.682;9.022;2024-01-25T16:15:54;9.93;;;4.33;;
42802;SDS011;28447;48.682;9.022;2024-01-25T16:18:20;7.93;;;3.40;;
42802;SDS011;28447;48.682;9.022;2024-01-25T16:20:46;12.30;;;3.80;;
42802;SDS011;28447;48.682;9.022;2024-01-25T16:23:12;15.13;;;3.67;;
42802;SDS011;28447;48.682;9.022;2024-01-25T16:25:38;12.17;;;4.20;;
42802;SDS011;28447;48.682;9.022;2024-01-25T16:28:05;11.70;;;3.13;;
42802;SDS011;28447;48.682;9.022;2024-01-25T16:30:31;10.37;;;4.13;;
42802;SDS011;28447;48.682;9.022;2024-01-25T16:32:57;10.17;;;4.00;;
42802;SDS011;28447;48.682;9.022;2024-01-25T16:35:23;8.80;;;3.17;;
42802;SDS011;28447;48.682;9.022;2024-01-25T16:37:49;9.33;;;4.03;;
42802;SDS011;28447;48.682;9.022;2024-01-25T16:40:15;8.23;;;3.80;;
42802;SDS011;28447;48.682;9.022;2024-01-25T16:42:41;12.60;;;3.03;;
42802;SDS011;28447;48.682;9.022;2024-01-25T16:45:07;10.50;;;3.17;;
42802;SDS011;28447;48.682;9.022;2024-01-25T16:47:33;8.13;;;3.20;;
42802;SDS011;28447;48.682;9.022;2024-01-25T16:49:59;10.93;;;3.90;;
42802;SDS011;28447;48.682;9.022;2024-01-25T16:52:25;14.23;;;5.93;;
42802;SDS011;28447;48.682;9.022;2024-01-25T16:54:51;18.97;;;9.03;;
42802;SDS011;28447;48.682;9.022;2024-01-25T16:57:18;7.10;;;4.50;;
42802;SDS011;28447;48.682;9.022;2024-01-25T16:59:44;8.70;;;4.23;;
42802;SDS011;28447;48.682;9.022;2024-01-25T17:02:10;11.67;;;3.70;;
42802;SDS011;28447;48.682;9.022;2024-01-25T17:04:36;7.70;;;3.83;;
42802;SDS011;28447;48.682;9.022;2024-01-25T17:07:02;8.93;;;4.53;;
42802;SDS011;28447;48.682;9.022;2024-01-25T17:09:28;10.23;;;4.30;;
42802;SDS011;28447;48.682;9.022;2024-01-25T17:11:54;7.60;;;4.23;;
42802;SDS011;28447;48.682;9.022;2024-01-25T17:14:20;7.57;;;3.10;;
42802;SDS011;28447;48.682;9.022;2024-01-25T17:16:46;9.80;;;3.63;;
42802;SDS011;28447;48.682;9.022;2024-01-25T17:19:12;11.97;;;4.03;;
42802;SDS011;28447;48.682;9.022;2024-01-25T17:21:38;9.37;;;4.50;;
42802;SDS011;28447;48.682;9.022;2024-01-25T17:24:04;7.77;;;3.27;;
42802;SDS011;28447;48.682;9.022;2024-01-25T17:26:31;6.77;;;3.70;;
42802;SDS011;28447;48.682;9.022;2024-01-25T17:28:57;11.33;;;4.60;;
42802;SDS011;28447;48.682;9.022;2024-01-25T17:31:23;9.60;;;3.90;;
42802;SDS011;28447;48.682;9.022;2024-01-25T17:33:49;6.23;;;3.40;;
42802;SDS011;28447;48.682;9.022;2024-01-25T17:36:15;5.57;;;3.00;;
42802;SDS011;28447;48.682;9.022;2024-01-25T17:38:41;8.23;;;2.97;;
42802;SDS011;28447;48.682;9.022;2024-01-25T17:41:10;5.00;;;3.33;;
42802;SDS011;28447;48.682;9.022;2024-01-25T17:43:36;6.30;;;3.30;;
42802;SDS011;28447;48.682;9.022;2024-01-25T17:46:02;8.40;;;3.17;;
42802;SDS011;28447;48.682;9.022;2024-01-25T17:48:29;5.10;;;3.20;;
42802;SDS011;28447;48.682;9.022;2024-01-25T17:50:55;5.20;;;3.23;;
42802;SDS011;28447;48.682;9.022;2024-01-25T17:53:21;6.37;;;2.83;;
42802;SDS011;28447;48.682;9.022;2024-01-25T17:55:47;4.87;;;3.00;;
42802;SDS011;28447;48.682;9.022;2024-01-25T17:58:13;6.43;;;3.03;;
42802;SDS011;28447;48.682;9.022;2024-01-25T18:00:39;4.10;;;2.63;;
42802;SDS011;28447;48.682;9.022;2024-01-25T18:03:05;5.00;;;2.70;;
42802;SDS011;28447;48.682;9.022;2024-01-25T18:05:31;11.20;;;2.90;;
42802;SDS011;28447;48.682;9.022;2024-01-25T18:07:57;4.60;;;2.30;;
42802;SDS011;28447;48.682;9.022;2024-01-25T18:10:23;4.30;;;2.60;;
42802;SDS011;28447;48.682;9.022;2024-01-25T18:12:49;6.03;;;3.07;;
42802;SDS011;28447;48.682;9.022;2024-01-25T18:15:15;2.90;;;2.40;;
42802;SDS011;28447;48.682;9.022;2024-01-25T18:17:43;3.77;;;3.20;;
42802;SDS011;28447;48.682;9.022;2024-01-25T18:20:09;4.20;;;2.40;;
42802;SDS011;28447;48.682;9.022;2024-01-25T18:22:36;4.00;;;2.87;;
42802;SDS011;28447;48.682;9.022;2024-01-25T18:25:02;4.27;;;2.30;;
42802;SDS011;28447;48.682;9.022;2024-01-25T18:27:28;3.33;;;2.63;;
42802;SDS011;28447;48.682;9.022;2024-01-25T18:29:54;3.73;;;2.53;;
42802;SDS011;28447;48.682;9.022;2024-01-25T18:32:20;4.23;;;2.20;;
42802;SDS011;28447;48.682;9.022;2024-01-25T18:34:46;3.80;;;2.70;;
42802;SDS011;28447;48.682;9.022;2024-01-25T18:37:12;5.60;;;2.80;;
42802;SDS011;28447;48.682;9.022;2024-01-25T18:39:38;5.00;;;2.73;;
42802;SDS011;28447;48.682;9.022;2024-01-25T18:42:04;7.00;;;2.57;;
42802;SDS011;28447;48.682;9.022;2024-01-25T18:44:30;3.20;;;2.57;;
42802;SDS011;28447;48.682;9.022;2024-01-25T18:46:56;3.80;;;2.67;;
42802;SDS011;28447;48.682;9.022;2024-01-25T18:49:22;5.20;;;2.57;;
42802;SDS011;28447;48.682;9.022;2024-01-25T18:51:49;4.93;;;2.27;;
42802;SDS011;28447;48.682;9.022;2024-01-25T18:54:15;2.70;;;2.27;;
42802;SDS011;28447;48.682;9.022;2024-01-25T18:56:42;4.30;;;2.47;;
42802;SDS011;28447;48.682;9.022;2024-01-25T18:59:08;2.70;;;2.27;;
42802;SDS011;28447;48.682;9.022;2024-01-25T19:01:34;3.30;;;2.63;;
42802;SDS011;28447;48.682;9.022;2024-01-25T19:04:01;3.70;;;3.30;;
42802;SDS011;28447;48.682;9.022;2024-01-25T19:06:33;3.83;;;3.00;;
42802;SDS011;28447;48.682;9.022;2024-01-25T19:09:00;8.00;;;3.47;;
42802;SDS011;28447;48.682;9.022;2024-01-25T19:11:26;5.50;;;3.13;;
42802;SDS011;28447;48.682;9.022;2024-01-25T19:13:53;7.10;;;4.13;;
42802;SDS011;28447;48.682;9.022;2024-01-25T19:16:19;6.50;;;4.30;;
42802;SDS011;28447;48.682;9.022;2024-01-25T19:18:45;6.40;;;3.97;;
42802;SDS011;28447;48.682;9.022;2024-01-25T19:21:11;7.97;;;3.50;;
42802;SDS011;28447;48.682;9.022;2024-01-25T19:23:38;4.37;;;3.50;;
42802;SDS011;28447;48.682;9.022;2024-01-25T19:26:04;5.37;;;4.10;;
42802;SDS011;28447;48.682;9.022;2024-01-25T19:28:29;7.43;;;3.77;;
42802;SDS011;28447;48.682;9.022;2024-01-25T19:30:56;4.90;;;3.60;;
42802;SDS011;28447;48.682;9.022;2024-01-25T19:33:22;6.80;;;3.40;;
42802;SDS011;28447;48.682;9.022;2024-01-25T19:35:49;6.90;;;3.90;;
42802;SDS011;28447;48.682;9.022;2024-01-25T19:38:17;8.00;;;3.50;;
42802;SDS011;28447;48.682;9.022;2024-01-25T19:40:43;5.13;;;4.10;;
42802;SDS011;28447;48.682;9.022;2024-01-25T19:43:10;4.40;;;3.73;;
42802;SDS011;28447;48.682;9.022;2024-01-25T19:45:36;6.13;;;4.00;;
42802;SDS011;28447;48.682;9.022;2024-01-25T19:48:03;6.93;;;4.30;;
42802;SDS011;28447;48.682;9.022;2024-01-25T19:50:29;5.10;;;4.37;;
42802;SDS011;28447;48.682;9.022;2024-01-25T19:52:55;5.50;;;4.10;;
42802;SDS011;28447;48.682;9.022;2024-01-25T19:55:21;5.53;;;4.17;;
42802;SDS011;28447;48.682;9.022;2024-01-25T19:57:47;4.93;;;4.10;;
42802;SDS011;28447;48.682;9.022;2024-01-25T20:00:14;6.80;;;4.30;;
42802;SDS011;28447;48.682;9.022;2024-01-25T20:02:40;5.13;;;4.20;;
42802;SDS011;28447;48.682;9.022;2024-01-25T20:05:06;5.77;;;4.47;;
42802;SDS011;28447;48.682;9.022;2024-01-25T20:07:33;5.90;;;4.40;;
42802;SDS011;28447;48.682;9.022;2024-01-25T20:10:00;6.33;;;4.73;;
42802;SDS011;28447;48.682;9.022;2024-01-25T20:12:26;7.30;;;4.50;;
42802;SDS011;28447;48.682;9.022;2024-01-25T20:14:52;7.57;;;4.80;;
42802;SDS011;28447;48.682;9.022;2024-01-25T20:17:18;5.30;;;4.50;;
42802;SDS011;28447;48.682;9.022;2024-01-25T20:19:47;8.20;;;5.60;;
42802;SDS011;28447;48.682;9.022;2024-01-25T20:22:13;6.30;;;4.80;;
42802;SDS011;28447;48.682;9.022;2024-01-25T20:24:39;7.30;;;5.37;;
42802;SDS011;28447;48.682;9.022;2024-01-25T20:27:05;7.40;;;5.40;;
42802;SDS011;28447;48.682;9.022;2024-01-25T20:29:31;7.20;;;4.97;;
42802;SDS011;28447;48.682;9.022;2024-01-25T20:31:57;6.67;;;5.27;;
42802;SDS011;28447;48.682;9.022;2024-01-25T20:34:24;8.20;;;5.23;;
42802;SDS011;28447;48.682;9.022;2024-01-25T20:36:50;7.80;;;5.07;;